sensor_id;sensor_type;location;lat;lon;timestamp;pressure;altitude;pressure_sealevel;temperature;humidity
24666;BME280;29726;53.532;-1.478;2023-05-19T00:02:15;101771.97;;;21.22;88.73
24666;BME280;29726;53.532;-1.478;2023-05-19T00:05:01;101778.94;;;21.21;88.50
24666;BME280;29726;53.532;-1.478;2023-05-19T00:07:46;101767.03;;;21.17;88.56
24666;BME280;29726;53.532;-1.478;2023-05-19T00:10:31;101772.44;;;21.10;88.57
24666;BME280;29726;53.532;-1.478;2023-05-19T00:13:16;101767.00;;;21.06;88.61
24666;BME280;29726;53.532;-1.478;2023-05-19T00:16:00;101774.47;;;21.04;88.45
24666;BME280;29726;53.532;-1.478;2023-05-19T00:18:44;101776.03;;;21.05;88.58
24666;BME280;29726;53.532;-1.478;2023-05-19T00:21:30;101760.78;;;20.97;88.59
24666;BME280;29726;53.532;-1.478;2023-05-19T00:24:15;101753.28;;;20.94;88.65
24666;BME280;29726;53.532;-1.478;2023-05-19T00:26:58;101769.28;;;20.97;88.65
24666;BME280;29726;53.532;-1.478;2023-05-19T00:29:43;101764.59;;;20.88;88.29
24666;BME280;29726;53.532;-1.478;2023-05-19T00:32:27;101764.09;;;20.90;88.29
24666;BME280;29726;53.532;-1.478;2023-05-19T00:35:11;101766.16;;;20.89;88.32
24666;BME280;29726;53.532;-1.478;2023-05-19T00:37:55;101733.22;;;20.66;88.32
24666;BME280;29726;53.532;-1.478;2023-05-19T00:40:40;101767.16;;;20.86;88.23
24666;BME280;29726;53.532;-1.478;2023-05-19T00:43:25;101764.06;;;20.84;88.46
24666;BME280;29726;53.532;-1.478;2023-05-19T00:46:09;101761.94;;;20.79;88.23
24666;BME280;29726;53.532;-1.478;2023-05-19T00:48:53;101768.63;;;20.76;88.07
24666;BME280;29726;53.532;-1.478;2023-05-19T00:51:37;101755.94;;;20.66;88.30
24666;BME280;29726;53.532;-1.478;2023-05-19T00:54:21;101769.88;;;20.70;88.10
24666;BME280;29726;53.532;-1.478;2023-05-19T00:57:05;101753.84;;;20.61;88.19
24666;BME280;29726;53.532;-1.478;2023-05-19T00:59:49;101767.28;;;20.66;88.43
24666;BME280;29726;53.532;-1.478;2023-05-19T01:02:33;101778.63;;;20.66;88.18
24666;BME280;29726;53.532;-1.478;2023-05-19T01:05:18;101770.88;;;20.61;88.19
24666;BME280;29726;53.532;-1.478;2023-05-19T01:08:02;101781.44;;;20.61;88.00
24666;BME280;29726;53.532;-1.478;2023-05-19T01:10:46;101768.78;;;20.56;88.25
24666;BME280;29726;53.532;-1.478;2023-05-19T01:13:31;101770.06;;;20.55;88.03
24666;BME280;29726;53.532;-1.478;2023-05-19T01:16:39;101777.03;;;20.54;87.96
24666;BME280;29726;53.532;-1.478;2023-05-19T01:22:54;101760.69;;;20.44;88.20
24666;BME280;29726;53.532;-1.478;2023-05-19T01:31:59;101758.56;;;20.39;88.12
24666;BME280;29726;53.532;-1.478;2023-05-19T01:34:48;101763.97;;;20.31;87.59
24666;BME280;29726;53.532;-1.478;2023-05-19T01:37:33;101773.00;;;20.35;87.64
24666;BME280;29726;53.532;-1.478;2023-05-19T01:40:20;101773.22;;;20.32;87.65
24666;BME280;29726;53.532;-1.478;2023-05-19T01:43:07;101767.50;;;20.26;87.49
24666;BME280;29726;53.532;-1.478;2023-05-19T01:45:52;101773.97;;;20.27;87.62
24666;BME280;29726;53.532;-1.478;2023-05-19T01:48:37;101769.81;;;20.23;87.64
24666;BME280;29726;53.532;-1.478;2023-05-19T01:51:21;101763.84;;;20.21;87.57
24666;BME280;29726;53.532;-1.478;2023-05-19T01:54:05;101773.66;;;20.20;87.58
24666;BME280;29726;53.532;-1.478;2023-05-19T01:57:08;101754.25;;;20.13;87.64
24666;BME280;29726;53.532;-1.478;2023-05-19T02:00:20;101761.50;;;20.14;87.30
24666;BME280;29726;53.532;-1.478;2023-05-19T02:03:36;101707.81;;;19.79;87.39
24666;BME280;29726;53.532;-1.478;2023-05-19T02:06:37;101760.69;;;20.08;87.49
24666;BME280;29726;53.532;-1.478;2023-05-19T02:09:39;101755.22;;;20.04;87.40
24666;BME280;29726;53.532;-1.478;2023-05-19T02:15:16;101752.28;;;19.99;87.61
24666;BME280;29726;53.532;-1.478;2023-05-19T02:18:01;101733.66;;;19.87;87.27
24666;BME280;29726;53.532;-1.478;2023-05-19T02:20:47;101740.88;;;19.88;87.61
24666;BME280;29726;53.532;-1.478;2023-05-19T02:23:31;101752.75;;;19.92;87.44
24666;BME280;29726;53.532;-1.478;2023-05-19T02:26:15;101750.66;;;19.87;87.05
24666;BME280;29726;53.532;-1.478;2023-05-19T02:28:59;101753.22;;;19.85;87.26
24666;BME280;29726;53.532;-1.478;2023-05-19T02:31:43;101757.81;;;19.82;87.11
24666;BME280;29726;53.532;-1.478;2023-05-19T02:34:27;101759.38;;;19.83;87.50
24666;BME280;29726;53.532;-1.478;2023-05-19T02:37:12;101754.44;;;19.78;87.01
24666;BME280;29726;53.532;-1.478;2023-05-19T02:39:57;101765.78;;;19.78;87.30
24666;BME280;29726;53.532;-1.478;2023-05-19T02:42:41;101756.41;;;19.72;87.26
24666;BME280;29726;53.532;-1.478;2023-05-19T02:45:25;101762.09;;;19.72;86.96
24666;BME280;29726;53.532;-1.478;2023-05-19T02:48:11;101752.75;;;19.66;87.15
24666;BME280;29726;53.532;-1.478;2023-05-19T02:50:55;101753.78;;;19.63;87.01
24666;BME280;29726;53.532;-1.478;2023-05-19T02:53:39;101752.94;;;19.57;87.20
24666;BME280;29726;53.532;-1.478;2023-05-19T02:56:23;101749.28;;;19.51;87.02
24666;BME280;29726;53.532;-1.478;2023-05-19T02:59:06;101726.47;;;19.40;87.16
24666;BME280;29726;53.532;-1.478;2023-05-19T03:01:54;101763.28;;;19.60;87.22
24666;BME280;29726;53.532;-1.478;2023-05-19T03:04:39;101729.25;;;19.35;86.77
24666;BME280;29726;53.532;-1.478;2023-05-19T03:07:25;101754.44;;;19.53;86.83
24666;BME280;29726;53.532;-1.478;2023-05-19T03:10:09;101746.94;;;19.50;86.61
24666;BME280;29726;53.532;-1.478;2023-05-19T03:12:53;101761.91;;;19.50;86.95
24666;BME280;29726;53.532;-1.478;2023-05-19T03:15:37;101753.09;;;19.48;86.93
24666;BME280;29726;53.532;-1.478;2023-05-19T03:18:21;101753.03;;;19.43;86.92
24666;BME280;29726;53.532;-1.478;2023-05-19T03:21:07;101741.94;;;19.39;86.85
24666;BME280;29726;53.532;-1.478;2023-05-19T03:23:51;101751.97;;;19.40;86.45
24666;BME280;29726;53.532;-1.478;2023-05-19T03:26:35;101739.25;;;19.30;86.63
24666;BME280;29726;53.532;-1.478;2023-05-19T03:29:20;101737.47;;;19.33;86.54
24666;BME280;29726;53.532;-1.478;2023-05-19T03:32:04;101732.03;;;19.29;86.44
24666;BME280;29726;53.532;-1.478;2023-05-19T03:34:48;101728.16;;;19.27;86.72
24666;BME280;29726;53.532;-1.478;2023-05-19T03:37:32;101729.41;;;19.26;86.63
24666;BME280;29726;53.532;-1.478;2023-05-19T03:40:16;101720.66;;;19.24;86.65
24666;BME280;29726;53.532;-1.478;2023-05-19T03:43:01;101701.38;;;19.08;86.63
24666;BME280;29726;53.532;-1.478;2023-05-19T03:45:45;101679.34;;;18.92;86.11
24666;BME280;29726;53.532;-1.478;2023-05-19T03:48:29;101709.94;;;19.13;86.37
24666;BME280;29726;53.532;-1.478;2023-05-19T03:51:13;101708.09;;;19.10;86.11
24666;BME280;29726;53.532;-1.478;2023-05-19T03:53:56;101705.19;;;19.05;86.12
24666;BME280;29726;53.532;-1.478;2023-05-19T03:56:41;101713.22;;;19.06;86.47
24666;BME280;29726;53.532;-1.478;2023-05-19T03:59:25;101700.25;;;19.00;86.32
24666;BME280;29726;53.532;-1.478;2023-05-19T04:02:09;101696.91;;;19.01;86.59
24666;BME280;29726;53.532;-1.478;2023-05-19T04:04:54;101706.91;;;18.97;86.60
24666;BME280;29726;53.532;-1.478;2023-05-19T04:07:38;101699.16;;;18.92;86.85
24666;BME280;29726;53.532;-1.478;2023-05-19T04:10:22;101710.47;;;18.92;86.49
24666;BME280;29726;53.532;-1.478;2023-05-19T04:13:06;101722.28;;;18.90;86.76
24666;BME280;29726;53.532;-1.478;2023-05-19T04:15:50;101686.00;;;18.69;86.30
24666;BME280;29726;53.532;-1.478;2023-05-19T04:18:34;101704.66;;;18.81;86.66
24666;BME280;29726;53.532;-1.478;2023-05-19T04:21:18;101728.13;;;18.87;86.50
24666;BME280;29726;53.532;-1.478;2023-05-19T04:24:05;101718.03;;;18.80;86.80
24666;BME280;29726;53.532;-1.478;2023-05-19T04:26:49;101712.88;;;18.79;86.45
24666;BME280;29726;53.532;-1.478;2023-05-19T04:29:35;101720.88;;;18.80;86.46
24666;BME280;29726;53.532;-1.478;2023-05-19T04:32:19;101718.44;;;18.73;86.59
24666;BME280;29726;53.532;-1.478;2023-05-19T04:35:03;101715.84;;;18.70;86.80
24666;BME280;29726;53.532;-1.478;2023-05-19T04:37:47;101704.94;;;18.63;86.87
24666;BME280;29726;53.532;-1.478;2023-05-19T04:40:31;101710.59;;;18.63;86.92
24666;BME280;29726;53.532;-1.478;2023-05-19T04:43:15;101721.50;;;18.70;86.77
24666;BME280;29726;53.532;-1.478;2023-05-19T04:46:01;101732.53;;;18.68;86.60
24666;BME280;29726;53.532;-1.478;2023-05-19T04:48:49;101719.63;;;18.67;86.69
24666;BME280;29726;53.532;-1.478;2023-05-19T04:51:33;101729.38;;;18.66;86.63
24666;BME280;29726;53.532;-1.478;2023-05-19T04:54:18;101731.94;;;18.64;86.99
24666;BME280;29726;53.532;-1.478;2023-05-19T04:57:03;101735.75;;;18.61;86.79
24666;BME280;29726;53.532;-1.478;2023-05-19T04:59:47;101741.41;;;18.61;87.00
24666;BME280;29726;53.532;-1.478;2023-05-19T05:02:32;101736.47;;;18.56;86.84
24666;BME280;29726;53.532;-1.478;2023-05-19T05:05:17;101732.00;;;18.49;86.84
24666;BME280;29726;53.532;-1.478;2023-05-19T05:08:01;101734.91;;;18.55;86.74
24666;BME280;29726;53.532;-1.478;2023-05-19T05:10:46;101739.50;;;18.52;87.13
24666;BME280;29726;53.532;-1.478;2023-05-19T05:13:30;101728.97;;;18.53;87.13
24666;BME280;29726;53.532;-1.478;2023-05-19T05:16:14;101683.50;;;18.22;87.20
24666;BME280;29726;53.532;-1.478;2023-05-19T05:18:59;101726.56;;;18.46;87.42
24666;BME280;29726;53.532;-1.478;2023-05-19T05:21:44;101724.69;;;18.43;87.32
24666;BME280;29726;53.532;-1.478;2023-05-19T05:24:28;101723.66;;;18.41;87.36
24666;BME280;29726;53.532;-1.478;2023-05-19T05:27:12;101724.41;;;18.41;87.74
24666;BME280;29726;53.532;-1.478;2023-05-19T05:29:57;101743.03;;;18.48;87.45
24666;BME280;29726;53.532;-1.478;2023-05-19T05:32:41;101723.38;;;18.39;87.71
24666;BME280;29726;53.532;-1.478;2023-05-19T05:35:25;101739.16;;;18.45;87.96
24666;BME280;29726;53.532;-1.478;2023-05-19T05:38:09;101749.19;;;18.46;88.03
24666;BME280;29726;53.532;-1.478;2023-05-19T05:40:54;101737.78;;;18.41;88.21
24666;BME280;29726;53.532;-1.478;2023-05-19T05:43:38;101726.91;;;18.34;88.26
24666;BME280;29726;53.532;-1.478;2023-05-19T05:46:22;101749.38;;;18.43;88.65
24666;BME280;29726;53.532;-1.478;2023-05-19T05:49:06;101740.91;;;18.43;88.55
24666;BME280;29726;53.532;-1.478;2023-05-19T05:51:50;101750.47;;;18.45;88.69
24666;BME280;29726;53.532;-1.478;2023-05-19T05:54:34;101740.31;;;18.39;88.54
24666;BME280;29726;53.532;-1.478;2023-05-19T05:57:19;101727.75;;;18.40;88.84
24666;BME280;29726;53.532;-1.478;2023-05-19T06:00:04;101730.19;;;18.32;88.70
24666;BME280;29726;53.532;-1.478;2023-05-19T06:02:50;101735.72;;;18.41;88.91
24666;BME280;29726;53.532;-1.478;2023-05-19T06:05:34;101734.44;;;18.42;88.96
24666;BME280;29726;53.532;-1.478;2023-05-19T06:08:18;101721.81;;;18.38;89.38
24666;BME280;29726;53.532;-1.478;2023-05-19T06:11:02;101738.84;;;18.43;89.22
24666;BME280;29726;53.532;-1.478;2023-05-19T06:13:51;101730.06;;;18.41;89.43
24666;BME280;29726;53.532;-1.478;2023-05-19T06:16:35;101729.78;;;18.39;89.78
24666;BME280;29726;53.532;-1.478;2023-05-19T06:19:20;101719.47;;;18.36;89.74
24666;BME280;29726;53.532;-1.478;2023-05-19T06:22:04;101735.44;;;18.39;90.05
24666;BME280;29726;53.532;-1.478;2023-05-19T06:24:48;101733.19;;;18.43;89.98
24666;BME280;29726;53.532;-1.478;2023-05-19T06:27:32;101740.91;;;18.43;90.04
24666;BME280;29726;53.532;-1.478;2023-05-19T06:30:15;101736.59;;;18.47;90.18
24666;BME280;29726;53.532;-1.478;2023-05-19T06:32:59;101723.13;;;18.42;89.95
24666;BME280;29726;53.532;-1.478;2023-05-19T06:35:44;101703.88;;;18.26;90.47
24666;BME280;29726;53.532;-1.478;2023-05-19T06:38:28;101732.50;;;18.48;90.77
24666;BME280;29726;53.532;-1.478;2023-05-19T06:41:12;101731.50;;;18.51;90.86
24666;BME280;29726;53.532;-1.478;2023-05-19T06:43:56;101728.69;;;18.51;91.55
24666;BME280;29726;53.532;-1.478;2023-05-19T06:46:40;101717.66;;;18.53;91.53
24666;BME280;29726;53.532;-1.478;2023-05-19T06:49:24;101722.03;;;18.54;91.97
24666;BME280;29726;53.532;-1.478;2023-05-19T06:52:11;101731.38;;;18.60;92.30
24666;BME280;29726;53.532;-1.478;2023-05-19T06:54:55;101708.97;;;18.56;92.49
24666;BME280;29726;53.532;-1.478;2023-05-19T06:57:39;101719.34;;;18.65;92.65
24666;BME280;29726;53.532;-1.478;2023-05-19T07:00:23;101673.50;;;18.41;93.37
24666;BME280;29726;53.532;-1.478;2023-05-19T07:03:07;101714.75;;;18.67;93.51
24666;BME280;29726;53.532;-1.478;2023-05-19T07:05:52;101725.88;;;18.71;93.58
24666;BME280;29726;53.532;-1.478;2023-05-19T07:08:35;101717.69;;;18.73;93.70
24666;BME280;29726;53.532;-1.478;2023-05-19T07:11:19;101712.78;;;18.73;93.94
24666;BME280;29726;53.532;-1.478;2023-05-19T07:14:04;101715.88;;;18.75;94.30
24666;BME280;29726;53.532;-1.478;2023-05-19T07:16:48;101714.91;;;18.78;94.35
24666;BME280;29726;53.532;-1.478;2023-05-19T07:19:32;101732.47;;;18.82;94.63
24666;BME280;29726;53.532;-1.478;2023-05-19T07:22:15;101726.31;;;18.84;94.46
24666;BME280;29726;53.532;-1.478;2023-05-19T07:24:59;101728.84;;;18.82;95.08
24666;BME280;29726;53.532;-1.478;2023-05-19T07:27:43;101732.25;;;18.86;94.61
24666;BME280;29726;53.532;-1.478;2023-05-19T07:30:28;101729.69;;;18.88;95.21
24666;BME280;29726;53.532;-1.478;2023-05-19T07:33:12;101734.59;;;18.87;95.84
24666;BME280;29726;53.532;-1.478;2023-05-19T07:35:56;101731.03;;;18.92;96.19
24666;BME280;29726;53.532;-1.478;2023-05-19T07:38:40;101730.56;;;18.94;96.25
24666;BME280;29726;53.532;-1.478;2023-05-19T07:41:24;101742.44;;;18.98;96.00
24666;BME280;29726;53.532;-1.478;2023-05-19T07:44:08;101740.59;;;18.95;95.70
24666;BME280;29726;53.532;-1.478;2023-05-19T07:46:53;101737.78;;;18.95;95.96
24666;BME280;29726;53.532;-1.478;2023-05-19T07:49:37;101740.38;;;18.98;96.68
24666;BME280;29726;53.532;-1.478;2023-05-19T07:52:21;101749.75;;;19.04;95.95
24666;BME280;29726;53.532;-1.478;2023-05-19T07:55:05;101740.16;;;19.02;96.74
24666;BME280;29726;53.532;-1.478;2023-05-19T07:57:49;101726.50;;;19.00;97.17
24666;BME280;29726;53.532;-1.478;2023-05-19T08:00:34;101738.91;;;19.03;96.91
24666;BME280;29726;53.532;-1.478;2023-05-19T08:03:17;101713.06;;;18.95;98.53
24666;BME280;29726;53.532;-1.478;2023-05-19T08:06:01;101743.63;;;19.11;98.02
24666;BME280;29726;53.532;-1.478;2023-05-19T08:08:46;101744.69;;;19.14;98.59
24666;BME280;29726;53.532;-1.478;2023-05-19T08:11:30;101722.34;;;18.96;98.51
24666;BME280;29726;53.532;-1.478;2023-05-19T08:14:14;101750.97;;;19.18;98.46
24666;BME280;29726;53.532;-1.478;2023-05-19T08:16:58;101760.00;;;19.22;98.51
24666;BME280;29726;53.532;-1.478;2023-05-19T08:19:42;101757.47;;;19.24;98.99
24666;BME280;29726;53.532;-1.478;2023-05-19T08:22:26;101746.13;;;19.24;98.34
24666;BME280;29726;53.532;-1.478;2023-05-19T08:25:10;101756.19;;;19.25;98.88
24666;BME280;29726;53.532;-1.478;2023-05-19T08:27:54;101750.03;;;19.26;98.37
24666;BME280;29726;53.532;-1.478;2023-05-19T08:30:38;101758.56;;;19.32;98.56
24666;BME280;29726;53.532;-1.478;2023-05-19T08:33:22;101753.69;;;19.32;98.77
24666;BME280;29726;53.532;-1.478;2023-05-19T08:36:06;101755.53;;;19.35;99.08
24666;BME280;29726;53.532;-1.478;2023-05-19T08:38:50;101741.66;;;19.37;99.60
24666;BME280;29726;53.532;-1.478;2023-05-19T08:41:34;101735.19;;;19.37;99.55
24666;BME280;29726;53.532;-1.478;2023-05-19T08:44:18;101746.09;;;19.44;100.00
24666;BME280;29726;53.532;-1.478;2023-05-19T08:47:03;101746.38;;;19.46;99.63
24666;BME280;29726;53.532;-1.478;2023-05-19T08:49:51;101745.66;;;19.51;100.00
24666;BME280;29726;53.532;-1.478;2023-05-19T08:52:52;101749.03;;;19.55;99.90
24666;BME280;29726;53.532;-1.478;2023-05-19T08:55:53;101751.88;;;19.55;99.47
24666;BME280;29726;53.532;-1.478;2023-05-19T08:58:43;101746.44;;;19.51;99.03
24666;BME280;29726;53.532;-1.478;2023-05-19T09:01:27;101749.59;;;19.59;99.15
24666;BME280;29726;53.532;-1.478;2023-05-19T09:04:14;101751.44;;;19.62;99.21
24666;BME280;29726;53.532;-1.478;2023-05-19T09:06:59;101751.72;;;19.64;99.45
24666;BME280;29726;53.532;-1.478;2023-05-19T09:09:47;101753.03;;;19.68;99.58
24666;BME280;29726;53.532;-1.478;2023-05-19T09:12:32;101755.38;;;19.70;99.80
24666;BME280;29726;53.532;-1.478;2023-05-19T09:15:17;101743.53;;;19.71;99.89
24666;BME280;29726;53.532;-1.478;2023-05-19T09:18:12;101749.50;;;19.73;100.00
24666;BME280;29726;53.532;-1.478;2023-05-19T09:21:00;101734.75;;;19.69;100.00
24666;BME280;29726;53.532;-1.478;2023-05-19T09:23:45;101734.72;;;19.64;100.00
24666;BME280;29726;53.532;-1.478;2023-05-19T09:29:21;101754.72;;;19.80;99.82
24666;BME280;29726;53.532;-1.478;2023-05-19T09:32:06;101742.59;;;19.80;100.00
24666;BME280;29726;53.532;-1.478;2023-05-19T09:34:50;101735.38;;;19.79;100.00
24666;BME280;29726;53.532;-1.478;2023-05-19T09:37:39;101744.94;;;19.81;100.00
24666;BME280;29726;53.532;-1.478;2023-05-19T09:40:26;101750.13;;;19.88;100.00
24666;BME280;29726;53.532;-1.478;2023-05-19T09:43:11;101740.59;;;19.86;100.00
24666;BME280;29726;53.532;-1.478;2023-05-19T09:46:05;101744.25;;;19.92;100.00
24666;BME280;29726;53.532;-1.478;2023-05-19T09:48:49;101756.63;;;19.94;99.97
24666;BME280;29726;53.532;-1.478;2023-05-19T09:51:35;101747.59;;;19.90;100.00
24666;BME280;29726;53.532;-1.478;2023-05-19T09:54:23;101745.06;;;19.98;100.00
24666;BME280;29726;53.532;-1.478;2023-05-19T09:57:07;101750.56;;;20.01;100.00
24666;BME280;29726;53.532;-1.478;2023-05-19T09:59:53;101755.97;;;20.05;100.00
24666;BME280;29726;53.532;-1.478;2023-05-19T10:02:41;101758.13;;;20.10;100.00
24666;BME280;29726;53.532;-1.478;2023-05-19T10:05:27;101750.09;;;20.08;100.00
24666;BME280;29726;53.532;-1.478;2023-05-19T10:08:12;101707.13;;;19.90;100.00
24666;BME280;29726;53.532;-1.478;2023-05-19T10:10:57;101748.13;;;20.20;100.00
24666;BME280;29726;53.532;-1.478;2023-05-19T10:13:42;101733.63;;;20.12;100.00
24666;BME280;29726;53.532;-1.478;2023-05-19T10:16:29;101747.09;;;20.23;100.00
24666;BME280;29726;53.532;-1.478;2023-05-19T10:19:14;101736.84;;;20.25;100.00
24666;BME280;29726;53.532;-1.478;2023-05-19T10:21:58;101746.16;;;20.31;100.00
24666;BME280;29726;53.532;-1.478;2023-05-19T10:24:42;101742.06;;;20.37;100.00
24666;BME280;29726;53.532;-1.478;2023-05-19T10:27:28;101746.72;;;20.40;100.00
24666;BME280;29726;53.532;-1.478;2023-05-19T10:30:16;101739.78;;;20.41;100.00
24666;BME280;29726;53.532;-1.478;2023-05-19T10:33:03;101736.19;;;20.46;100.00
24666;BME280;29726;53.532;-1.478;2023-05-19T10:39:10;101746.34;;;20.58;100.00
24666;BME280;29726;53.532;-1.478;2023-05-19T10:42:15;101716.59;;;20.43;100.00
24666;BME280;29726;53.532;-1.478;2023-05-19T10:45:29;101752.06;;;20.69;100.00
24666;BME280;29726;53.532;-1.478;2023-05-19T10:48:15;101746.16;;;20.73;100.00
24666;BME280;29726;53.532;-1.478;2023-05-19T10:50:59;101745.69;;;20.80;100.00
24666;BME280;29726;53.532;-1.478;2023-05-19T10:53:44;101754.47;;;20.82;99.82
24666;BME280;29726;53.532;-1.478;2023-05-19T10:56:33;101754.00;;;20.83;100.00
24666;BME280;29726;53.532;-1.478;2023-05-19T10:59:29;101757.41;;;20.93;100.00
24666;BME280;29726;53.532;-1.478;2023-05-19T11:02:37;101757.13;;;20.96;100.00
24666;BME280;29726;53.532;-1.478;2023-05-19T11:05:28;101724.59;;;20.86;100.00
24666;BME280;29726;53.532;-1.478;2023-05-19T11:08:12;101737.81;;;21.00;100.00
24666;BME280;29726;53.532;-1.478;2023-05-19T11:11:11;101749.72;;;21.10;100.00
24666;BME280;29726;53.532;-1.478;2023-05-19T11:13:55;101761.91;;;21.16;99.34
24666;BME280;29726;53.532;-1.478;2023-05-19T11:16:39;101759.31;;;21.18;98.93
24666;BME280;29726;53.532;-1.478;2023-05-19T11:19:33;101755.72;;;21.23;99.16
24666;BME280;29726;53.532;-1.478;2023-05-19T11:22:30;101770.72;;;21.29;99.55
24666;BME280;29726;53.532;-1.478;2023-05-19T11:25:40;101761.41;;;21.28;98.68
24666;BME280;29726;53.532;-1.478;2023-05-19T11:28:24;101765.84;;;21.40;98.83
24666;BME280;29726;53.532;-1.478;2023-05-19T11:31:09;101756.03;;;21.36;98.97
24666;BME280;29726;53.532;-1.478;2023-05-19T11:33:54;101763.03;;;21.46;98.92
24666;BME280;29726;53.532;-1.478;2023-05-19T11:36:38;101769.47;;;21.52;99.10
24666;BME280;29726;53.532;-1.478;2023-05-19T11:39:23;101745.69;;;21.38;98.73
24666;BME280;29726;53.532;-1.478;2023-05-19T11:42:08;101770.03;;;21.61;98.37
24666;BME280;29726;53.532;-1.478;2023-05-19T11:44:56;101740.03;;;21.44;98.32
24666;BME280;29726;53.532;-1.478;2023-05-19T11:47:40;101775.00;;;21.72;98.81
24666;BME280;29726;53.532;-1.478;2023-05-19T11:50:24;101780.69;;;21.77;98.28
24666;BME280;29726;53.532;-1.478;2023-05-19T11:53:12;101773.72;;;21.78;98.21
24666;BME280;29726;53.532;-1.478;2023-05-19T11:56:02;101784.84;;;21.82;98.48
24666;BME280;29726;53.532;-1.478;2023-05-19T11:58:46;101770.63;;;21.82;98.45
24666;BME280;29726;53.532;-1.478;2023-05-19T12:01:30;101765.69;;;21.82;98.41
24666;BME280;29726;53.532;-1.478;2023-05-19T12:04:14;101766.97;;;21.76;98.25
24666;BME280;29726;53.532;-1.478;2023-05-19T12:06:58;101790.53;;;21.87;98.08
24666;BME280;29726;53.532;-1.478;2023-05-19T12:09:44;101780.72;;;21.83;98.04
24666;BME280;29726;53.532;-1.478;2023-05-19T12:12:28;101779.69;;;21.86;98.15
24666;BME280;29726;53.532;-1.478;2023-05-19T12:15:13;101776.03;;;21.80;98.11
24666;BME280;29726;53.532;-1.478;2023-05-19T12:17:59;101783.28;;;21.81;98.45
24666;BME280;29726;53.532;-1.478;2023-05-19T12:20:43;101784.59;;;21.91;98.55
24666;BME280;29726;53.532;-1.478;2023-05-19T12:23:28;101775.53;;;21.92;98.73
24666;BME280;29726;53.532;-1.478;2023-05-19T12:26:13;101764.44;;;21.89;98.61
24666;BME280;29726;53.532;-1.478;2023-05-19T12:28:57;101759.50;;;21.89;99.19
24666;BME280;29726;53.532;-1.478;2023-05-19T12:31:45;101759.78;;;21.97;99.15
24666;BME280;29726;53.532;-1.478;2023-05-19T12:34:30;101756.16;;;21.96;99.44
24666;BME280;29726;53.532;-1.478;2023-05-19T12:37:14;101766.75;;;22.01;99.53
24666;BME280;29726;53.532;-1.478;2023-05-19T12:39:58;101759.53;;;22.00;99.45
24666;BME280;29726;53.532;-1.478;2023-05-19T12:42:46;101767.28;;;22.05;99.46
24666;BME280;29726;53.532;-1.478;2023-05-19T12:45:35;101759.53;;;22.05;99.76
24666;BME280;29726;53.532;-1.478;2023-05-19T12:48:22;101766.00;;;22.11;99.59
24666;BME280;29726;53.532;-1.478;2023-05-19T12:51:06;101754.59;;;22.11;99.92
24666;BME280;29726;53.532;-1.478;2023-05-19T12:53:50;101766.00;;;22.17;99.79
24666;BME280;29726;53.532;-1.478;2023-05-19T12:56:34;101745.53;;;22.13;99.93
24666;BME280;29726;53.532;-1.478;2023-05-19T12:59:25;101760.28;;;22.22;99.92
24666;BME280;29726;53.532;-1.478;2023-05-19T13:02:09;101756.41;;;22.25;99.72
24666;BME280;29726;53.532;-1.478;2023-05-19T13:04:53;101742.97;;;22.26;99.72
24666;BME280;29726;53.532;-1.478;2023-05-19T13:07:37;101752.00;;;22.30;99.06
24666;BME280;29726;53.532;-1.478;2023-05-19T13:10:23;101755.63;;;22.36;99.65
24666;BME280;29726;53.532;-1.478;2023-05-19T13:13:10;101748.38;;;22.35;98.97
24666;BME280;29726;53.532;-1.478;2023-05-19T13:15:54;101748.38;;;22.35;99.19
24666;BME280;29726;53.532;-1.478;2023-05-19T13:18:39;101741.66;;;22.38;99.48
24666;BME280;29726;53.532;-1.478;2023-05-19T13:21:22;101746.84;;;22.45;99.93
24666;BME280;29726;53.532;-1.478;2023-05-19T13:24:07;101738.28;;;22.50;100.00
24666;BME280;29726;53.532;-1.478;2023-05-19T13:26:51;101739.31;;;22.53;100.00
24666;BME280;29726;53.532;-1.478;2023-05-19T13:29:35;101741.66;;;22.54;100.00
24666;BME280;29726;53.532;-1.478;2023-05-19T13:32:19;101727.94;;;22.53;100.00
24666;BME280;29726;53.532;-1.478;2023-05-19T13:35:03;101747.56;;;22.67;100.00
24666;BME280;29726;53.532;-1.478;2023-05-19T13:37:48;101740.81;;;22.70;100.00
24666;BME280;29726;53.532;-1.478;2023-05-19T13:40:32;101738.50;;;22.69;100.00
24666;BME280;29726;53.532;-1.478;2023-05-19T13:43:17;101713.44;;;22.56;100.00
24666;BME280;29726;53.532;-1.478;2023-05-19T13:46:01;101732.28;;;22.76;100.00
24666;BME280;29726;53.532;-1.478;2023-05-19T13:48:45;101699.69;;;22.66;100.00
24666;BME280;29726;53.532;-1.478;2023-05-19T13:51:29;101726.81;;;22.83;100.00
24666;BME280;29726;53.532;-1.478;2023-05-19T13:54:13;101735.31;;;22.94;100.00
24666;BME280;29726;53.532;-1.478;2023-05-19T13:56:57;101729.59;;;23.00;100.00
24666;BME280;29726;53.532;-1.478;2023-05-19T13:59:42;101721.53;;;23.04;100.00
24666;BME280;29726;53.532;-1.478;2023-05-19T14:02:26;101716.63;;;23.10;100.00
24666;BME280;29726;53.532;-1.478;2023-05-19T14:05:10;101715.84;;;23.15;100.00
24666;BME280;29726;53.532;-1.478;2023-05-19T14:07:54;101718.13;;;23.22;100.00
24666;BME280;29726;53.532;-1.478;2023-05-19T14:10:38;101718.59;;;23.31;100.00
24666;BME280;29726;53.532;-1.478;2023-05-19T14:13:22;101725.56;;;23.36;100.00
24666;BME280;29726;53.532;-1.478;2023-05-19T14:16:07;101718.03;;;23.38;100.00
24666;BME280;29726;53.532;-1.478;2023-05-19T14:18:51;101690.91;;;23.26;99.74
24666;BME280;29726;53.532;-1.478;2023-05-19T14:21:35;101726.22;;;23.53;99.81
24666;BME280;29726;53.532;-1.478;2023-05-19T14:24:19;101733.16;;;23.63;99.54
24666;BME280;29726;53.532;-1.478;2023-05-19T14:27:03;101727.69;;;23.70;99.47
24666;BME280;29726;53.532;-1.478;2023-05-19T14:29:47;101730.47;;;23.75;100.00
24666;BME280;29726;53.532;-1.478;2023-05-19T14:32:31;101722.94;;;23.78;100.00